Time;durP1;ratioP1;P1;durP2;ratioP2;P2;SDS_P1;SDS_P2;PMS_P1;PMS_P2;Temp;Humidity;BMP_temperature;BMP_pressure;BME280_temperature;BME280_humidity;BME280_pressure;Samples;Min_cycle;Max_cycle;Signal;HPM_P1;HPM_P2
2021/10/14 00:00:37;;;;;;;19.85;12.20;;;9.60;99.90;;;;;;5081017;28;20094;-59
2021/10/14 00:03:07;;;;;;;23.85;11.65;;;9.60;99.90;;;;;;5084070;28;20032;-59
2021/10/14 00:05:33;;;;;;;19.30;12.63;;;9.60;99.90;;;;;;5086363;28;20043;-59
2021/10/14 00:07:58;;;;;;;19.55;11.93;;;9.60;99.90;;;;;;5072280;28;20067;-59
2021/10/14 00:10:24;;;;;;;25.08;11.50;;;9.60;99.90;;;;;;5076860;28;20068;-59
2021/10/14 00:12:50;;;;;;;18.35;11.85;;;9.60;99.90;;;;;;5083899;28;20111;-59
2021/10/14 00:15:16;;;;;;;28.20;12.00;;;9.60;99.90;;;;;;5085729;28;20498;-60
2021/10/14 00:17:41;;;;;;;22.83;11.93;;;9.60;99.90;;;;;;5086715;28;20020;-58
2021/10/14 00:20:08;;;;;;;23.63;13.02;;;9.60;99.90;;;;;;5077637;28;20047;-60
2021/10/14 00:22:33;;;;;;;22.08;12.30;;;9.50;99.90;;;;;;5082186;28;20047;-60
2021/10/14 00:24:59;;;;;;;31.90;13.32;;;9.50;99.90;;;;;;5080032;28;20043;-59
2021/10/14 00:27:25;;;;;;;19.67;12.63;;;9.50;99.90;;;;;;5081089;28;20024;-60
2021/10/14 00:29:50;;;;;;;24.00;12.05;;;9.50;99.90;;;;;;5077504;28;20053;-59
2021/10/14 00:32:16;;;;;;;26.73;11.98;;;9.50;99.90;;;;;;5062084;28;20552;-59
2021/10/14 00:34:42;;;;;;;27.52;12.68;;;9.50;99.90;;;;;;5084140;28;20102;-60
2021/10/14 00:37:08;;;;;;;23.05;12.85;;;9.50;99.90;;;;;;5081819;28;20020;-59
2021/10/14 00:39:33;;;;;;;23.33;12.93;;;9.50;99.90;;;;;;5079072;28;20129;-53
2021/10/14 00:41:59;;;;;;;20.50;13.38;;;9.60;99.90;;;;;;5082169;28;20089;-59
2021/10/14 00:44:25;;;;;;;29.27;13.07;;;9.50;99.90;;;;;;5078497;28;20067;-60
2021/10/14 00:46:55;;;;;;;23.20;13.68;;;9.60;99.90;;;;;;5077481;28;20097;-60
2021/10/14 00:49:21;;;;;;;26.08;13.07;;;9.50;99.90;;;;;;5086039;28;20028;-59
2021/10/14 00:51:47;;;;;;;26.55;14.20;;;9.60;99.90;;;;;;5086670;28;20402;-60
2021/10/14 00:54:17;;;;;;;22.27;12.32;;;9.60;99.90;;;;;;5084331;28;20031;-60
2021/10/14 00:56:43;;;;;;;23.20;13.63;;;9.60;99.90;;;;;;5082602;28;20048;-60
2021/10/14 00:59:09;;;;;;;24.48;12.90;;;9.60;99.90;;;;;;5080931;28;20524;-60
2021/10/14 01:01:36;;;;;;;27.38;12.38;;;9.60;99.90;;;;;;5083366;28;20031;-59
2021/10/14 01:04:03;;;;;;;27.40;12.68;;;9.60;99.90;;;;;;5081605;28;20115;-60
2021/10/14 01:06:29;;;;;;;25.85;14.57;;;9.60;99.90;;;;;;5080119;28;20028;-59
2021/10/14 01:08:54;;;;;;;27.15;12.93;;;9.60;99.90;;;;;;5082145;28;20031;-59
2021/10/14 01:11:20;;;;;;;22.08;13.57;;;9.60;99.90;;;;;;5086114;28;20024;-59
2021/10/14 01:13:46;;;;;;;24.20;12.35;;;9.60;99.90;;;;;;5081140;28;20072;-60
2021/10/14 01:16:11;;;;;;;25.20;13.02;;;9.60;99.90;;;;;;5088498;28;20035;-59
2021/10/14 01:18:37;;;;;;;24.92;12.65;;;9.60;99.90;;;;;;5076082;28;20526;-58
2021/10/14 01:21:02;;;;;;;27.27;12.80;;;9.60;99.90;;;;;;5080309;28;20024;-60
2021/10/14 01:23:28;;;;;;;21.98;12.32;;;9.50;99.90;;;;;;5082370;28;20047;-60
2021/10/14 01:25:54;;;;;;;28.13;13.45;;;9.50;99.90;;;;;;5086254;28;20028;-59
2021/10/14 01:28:19;;;;;;;23.13;11.93;;;9.40;99.90;;;;;;5084131;28;20032;-59
2021/10/14 01:30:45;;;;;;;21.80;12.10;;;9.40;99.90;;;;;;5087666;28;20020;-59
2021/10/14 01:33:11;;;;;;;29.20;11.60;;;9.40;99.90;;;;;;5063542;28;20055;-60
2021/10/14 01:35:36;;;;;;;21.90;11.27;;;9.30;99.90;;;;;;5079696;28;20029;-56
2021/10/14 01:38:02;;;;;;;18.25;11.75;;;9.30;99.90;;;;;;5081291;28;20020;-59
2021/10/14 01:40:28;;;;;;;14.70;11.40;;;9.30;99.90;;;;;;5079286;28;20039;-59
2021/10/14 01:42:53;;;;;;;18.10;10.98;;;9.20;99.90;;;;;;5077617;28;20032;-60
2021/10/14 01:45:19;;;;;;;29.25;10.60;;;9.20;99.90;;;;;;5084096;28;20024;-59
2021/10/14 01:47:45;;;;;;;22.65;10.95;;;9.20;99.90;;;;;;5076290;28;20032;-58
2021/10/14 01:50:10;;;;;;;19.95;10.60;;;9.20;99.90;;;;;;5074540;28;20062;-59
2021/10/14 01:52:36;;;;;;;19.70;11.25;;;9.30;99.90;;;;;;5084180;28;20123;-58
2021/10/14 01:55:03;;;;;;;26.85;11.45;;;9.30;99.90;;;;;;5081675;28;20107;-60
2021/10/14 01:57:29;;;;;;;20.00;12.07;;;9.30;99.90;;;;;;5080672;28;20036;-59
2021/10/14 01:59:55;;;;;;;25.90;11.25;;;9.30;99.90;;;;;;5082407;28;20508;-60
2021/10/14 02:02:20;;;;;;;23.65;11.60;;;9.30;99.90;;;;;;5082368;28;20070;-60
2021/10/14 02:04:46;;;;;;;23.73;10.85;;;9.40;99.90;;;;;;5071498;28;20051;-60
2021/10/14 02:07:11;;;;;;;24.77;10.98;;;9.30;99.90;;;;;;5080360;28;20036;-58
2021/10/14 02:09:37;;;;;;;20.70;11.57;;;9.40;99.90;;;;;;5081354;28;20037;-58
2021/10/14 02:12:03;;;;;;;20.55;10.73;;;9.40;99.90;;;;;;5086581;28;20032;-60
2021/10/14 02:14:28;;;;;;;19.50;11.13;;;9.40;99.90;;;;;;5079883;28;20035;-59
2021/10/14 02:16:54;;;;;;;22.08;11.90;;;9.40;99.90;;;;;;5079408;28;20282;-59
2021/10/14 02:19:19;;;;;;;21.48;11.38;;;9.40;99.90;;;;;;5074930;28;20020;-58
2021/10/14 02:21:45;;;;;;;21.23;10.32;;;9.40;99.90;;;;;;5072580;28;20028;-60
2021/10/14 02:24:11;;;;;;;23.65;10.70;;;9.40;99.90;;;;;;5080865;28;20032;-60
2021/10/14 02:26:36;;;;;;;19.60;10.30;;;9.40;99.90;;;;;;5081304;28;20039;-60
2021/10/14 02:29:02;;;;;;;16.40;10.88;;;9.40;99.90;;;;;;5080806;28;20029;-60
2021/10/14 02:31:27;;;;;;;21.90;11.55;;;9.40;99.90;;;;;;5081023;28;20039;-60
2021/10/14 02:33:53;;;;;;;17.27;10.27;;;9.40;99.90;;;;;;5066500;28;20045;-60
2021/10/14 02:36:18;;;;;;;22.00;10.30;;;9.40;99.90;;;;;;5079694;28;20020;-61
2021/10/14 02:38:44;;;;;;;14.05;10.23;;;9.40;99.90;;;;;;5085023;28;20099;-60
2021/10/14 02:41:09;;;;;;;21.33;11.18;;;9.40;99.90;;;;;;5082702;28;20478;-60
2021/10/14 02:43:35;;;;;;;17.75;11.55;;;9.40;99.90;;;;;;5090302;28;20036;-60
2021/10/14 02:46:00;;;;;;;18.92;10.25;;;9.50;99.90;;;;;;5085026;28;20028;-60
2021/10/14 02:48:26;;;;;;;17.23;10.35;;;9.50;99.90;;;;;;5082675;28;20042;-59
2021/10/14 02:50:51;;;;;;;18.48;10.63;;;9.50;99.90;;;;;;5081673;28;20436;-59
2021/10/14 02:53:17;;;;;;;17.17;11.30;;;9.50;99.90;;;;;;5090144;28;20040;-60
2021/10/14 02:55:42;;;;;;;20.17;11.23;;;9.40;99.90;;;;;;5086019;28;20021;-60
2021/10/14 02:58:08;;;;;;;22.05;11.25;;;9.50;99.90;;;;;;5084392;28;20366;-60
2021/10/14 03:00:34;;;;;;;17.52;11.35;;;9.50;99.90;;;;;;5087197;28;20016;-60
2021/10/14 03:02:59;;;;;;;24.15;12.13;;;9.50;99.90;;;;;;5088503;28;20035;-60
2021/10/14 03:05:25;;;;;;;19.77;12.15;;;9.40;99.90;;;;;;5082586;28;20032;-60
2021/10/14 03:07:50;;;;;;;22.63;12.27;;;9.50;99.90;;;;;;5085350;28;20669;-60
2021/10/14 03:10:16;;;;;;;19.67;11.52;;;9.50;99.90;;;;;;5074438;28;20059;-60
2021/10/14 03:12:41;;;;;;;20.20;11.43;;;9.50;99.90;;;;;;5086936;28;20036;-60
2021/10/14 03:15:07;;;;;;;27.63;12.18;;;9.50;99.90;;;;;;5081645;28;20028;-59
2021/10/14 03:17:34;;;;;;;24.15;12.60;;;9.50;99.90;;;;;;5084226;28;20028;-60
2021/10/14 03:20:00;;;;;;;18.10;11.30;;;9.60;99.90;;;;;;5086069;28;20068;-59
2021/10/14 03:22:25;;;;;;;17.27;9.73;;;9.60;99.90;;;;;;5088407;28;20020;-59
2021/10/14 03:24:51;;;;;;;22.30;10.10;;;9.70;99.90;;;;;;5089544;28;20031;-60
2021/10/14 03:27:16;;;;;;;20.70;9.10;;;9.70;99.90;;;;;;5086074;28;20039;-60
2021/10/14 03:29:42;;;;;;;26.00;11.38;;;9.70;99.90;;;;;;5083800;28;20450;-56
2021/10/14 03:32:08;;;;;;;19.00;11.43;;;9.70;99.90;;;;;;5080469;28;20536;-60
2021/10/14 03:34:34;;;;;;;19.65;10.82;;;9.70;99.90;;;;;;5067281;28;20063;-61
2021/10/14 03:36:59;;;;;;;18.20;11.27;;;9.70;99.90;;;;;;5083322;28;20081;-60
2021/10/14 03:39:25;;;;;;;20.38;10.88;;;9.70;99.90;;;;;;5088466;28;20040;-60
2021/10/14 03:41:51;;;;;;;23.40;11.43;;;9.70;99.90;;;;;;5083986;28;20024;-60
2021/10/14 03:44:17;;;;;;;26.95;12.02;;;9.70;99.90;;;;;;5082905;28;20024;-60
2021/10/14 03:46:43;;;;;;;25.55;11.98;;;9.60;99.90;;;;;;5080070;28;20113;-60
2021/10/14 03:49:09;;;;;;;27.88;12.57;;;9.60;99.90;;;;;;5082618;28;20016;-59
2021/10/14 03:51:35;;;;;;;25.13;12.20;;;9.60;99.90;;;;;;5084936;28;20485;-59
2021/10/14 03:54:00;;;;;;;22.58;12.02;;;9.60;99.90;;;;;;5080964;28;20028;-60
2021/10/14 03:56:26;;;;;;;29.75;12.35;;;9.50;99.90;;;;;;5082659;28;20024;-60
2021/10/14 03:58:52;;;;;;;27.00;13.10;;;9.50;99.90;;;;;;5085560;28;20126;-60
2021/10/14 04:01:18;;;;;;;24.70;12.52;;;9.40;99.90;;;;;;5087198;28;20464;-60
2021/10/14 04:03:43;;;;;;;24.88;12.65;;;9.50;99.90;;;;;;5084599;28;20040;-59
2021/10/14 04:06:09;;;;;;;24.40;12.40;;;9.50;99.90;;;;;;5076618;28;20033;-60
2021/10/14 04:08:35;;;;;;;31.20;13.20;;;9.50;99.90;;;;;;5086726;28;20048;-60
2021/10/14 04:11:00;;;;;;;24.92;12.88;;;9.50;99.90;;;;;;5076781;28;20142;-59
2021/10/14 04:13:26;;;;;;;31.58;14.18;;;9.50;99.90;;;;;;5082139;28;20036;-58
2021/10/14 04:15:52;;;;;;;27.85;12.25;;;9.50;99.90;;;;;;5086073;28;20131;-59
2021/10/14 04:18:17;;;;;;;23.70;13.48;;;9.50;99.90;;;;;;5079807;28;20027;-60
2021/10/14 04:20:43;;;;;;;23.92;12.85;;;9.50;99.90;;;;;;5079876;28;20104;-59
2021/10/14 04:23:09;;;;;;;25.80;12.32;;;9.50;99.90;;;;;;5084572;28;20036;-59
2021/10/14 04:25:35;;;;;;;34.53;13.98;;;9.40;99.90;;;;;;5088558;28;20386;-59
2021/10/14 04:28:02;;;;;;;34.63;13.02;;;9.50;99.90;;;;;;5077662;28;20089;-59
2021/10/14 04:30:29;;;;;;;28.48;13.18;;;9.50;99.90;;;;;;5081767;28;20044;-59
2021/10/14 04:32:55;;;;;;;32.97;13.98;;;9.50;99.90;;;;;;5063577;28;20044;-60
2021/10/14 04:35:21;;;;;;;29.88;14.20;;;9.50;99.90;;;;;;5080025;28;20497;-60
2021/10/14 04:37:47;;;;;;;26.77;13.90;;;9.40;99.90;;;;;;5084654;28;20024;-59
2021/10/14 04:40:13;;;;;;;38.55;14.57;;;9.40;99.90;;;;;;5080459;28;20051;-59
2021/10/14 04:42:39;;;;;;;29.83;15.32;;;9.40;99.90;;;;;;5082754;28;20026;-60
2021/10/14 04:45:05;;;;;;;30.35;16.33;;;9.40;99.90;;;;;;5081016;28;20035;-59
2021/10/14 04:47:30;;;;;;;41.17;17.85;;;9.40;99.90;;;;;;5080458;28;20027;-60
2021/10/14 04:49:56;;;;;;;36.92;16.70;;;9.30;99.90;;;;;;5086128;28;20065;-60
2021/10/14 04:52:21;;;;;;;33.08;17.38;;;9.30;99.90;;;;;;5082172;28;20024;-60
2021/10/14 04:54:47;;;;;;;42.15;17.00;;;9.30;99.90;;;;;;5083919;28;20050;-59
2021/10/14 04:57:12;;;;;;;36.17;17.25;;;9.30;99.90;;;;;;5077335;28;20024;-60
2021/10/14 04:59:38;;;;;;;37.72;19.33;;;9.30;99.90;;;;;;5074642;28;20052;-59
2021/10/14 05:02:04;;;;;;;42.95;19.17;;;9.30;99.90;;;;;;5082161;28;20074;-60
2021/10/14 05:04:30;;;;;;;42.47;21.23;;;9.30;99.90;;;;;;5073760;28;20044;-60
2021/10/14 05:06:55;;;;;;;38.42;20.00;;;9.30;99.90;;;;;;5081455;28;20036;-60
2021/10/14 05:09:21;;;;;;;44.58;20.95;;;9.30;99.90;;;;;;5082517;28;20520;-60
2021/10/14 05:11:46;;;;;;;46.95;21.65;;;9.20;99.90;;;;;;5079262;28;20084;-60
2021/10/14 05:14:12;;;;;;;43.35;21.08;;;9.20;99.90;;;;;;5082963;28;20103;-59
2021/10/14 05:16:37;;;;;;;44.55;23.75;;;9.20;99.90;;;;;;5082396;28;20035;-60
2021/10/14 05:19:04;;;;;;;47.15;23.17;;;9.30;99.90;;;;;;5086747;28;20505;-59
2021/10/14 05:21:31;;;;;;;45.63;23.30;;;9.20;99.90;;;;;;5075983;28;20370;-58
2021/10/14 05:24:00;;;;;;;44.22;21.60;;;9.20;99.90;;;;;;5082801;28;20047;-60
2021/10/14 05:26:30;;;;;;;44.00;22.90;;;9.30;99.90;;;;;;5082273;28;20070;-60
2021/10/14 05:28:57;;;;;;;42.63;22.15;;;9.20;99.90;;;;;;5084625;28;20028;-59
2021/10/14 05:31:23;;;;;;;53.92;29.35;;;9.20;99.90;;;;;;5084189;28;20054;-60
2021/10/14 05:33:49;;;;;;;57.78;30.83;;;9.20;99.90;;;;;;5065191;28;20413;-59
2021/10/14 05:36:15;;;;;;;136.02;68.38;;;9.30;99.90;;;;;;5083242;28;20321;-59
2021/10/14 05:38:41;;;;;;;72.88;38.60;;;9.30;99.90;;;;;;5082348;28;20031;-59
2021/10/14 05:41:07;;;;;;;177.70;78.35;;;9.20;99.90;;;;;;5077157;28;20036;-60
2021/10/14 05:43:32;;;;;;;58.90;27.80;;;9.30;99.90;;;;;;5080159;28;20073;-60
2021/10/14 05:45:58;;;;;;;41.58;21.63;;;9.30;99.90;;;;;;5078324;28;20064;-60
2021/10/14 05:48:23;;;;;;;52.55;29.58;;;9.30;99.90;;;;;;5085796;28;20023;-60
2021/10/14 05:50:49;;;;;;;41.97;24.33;;;9.30;99.90;;;;;;5085340;28;20369;-60
2021/10/14 05:53:14;;;;;;;43.55;26.48;;;9.30;99.90;;;;;;5083744;28;20024;-60
2021/10/14 05:55:40;;;;;;;38.05;23.25;;;9.30;99.90;;;;;;5084313;28;20043;-60
2021/10/14 05:58:06;;;;;;;36.05;21.55;;;9.30;99.90;;;;;;5086544;28;20055;-58
2021/10/14 06:00:31;;;;;;;34.78;19.42;;;9.30;99.90;;;;;;5082045;28;20070;-60
2021/10/14 06:02:57;;;;;;;36.08;21.20;;;9.30;99.90;;;;;;5085810;28;20146;-60
2021/10/14 06:05:23;;;;;;;36.25;19.10;;;9.30;99.90;;;;;;5086954;28;20062;-58
2021/10/14 06:07:49;;;;;;;40.90;22.85;;;9.30;99.90;;;;;;5084869;28;20028;-60
2021/10/14 06:10:15;;;;;;;42.85;22.13;;;9.40;99.90;;;;;;5083008;28;20031;-60
2021/10/14 06:12:40;;;;;;;55.38;21.58;;;9.40;99.90;;;;;;5085454;28;20027;-59
2021/10/14 06:15:07;;;;;;;45.40;20.15;;;9.40;99.90;;;;;;5086852;28;20639;-60
2021/10/14 06:17:33;;;;;;;33.63;19.23;;;9.40;99.90;;;;;;5089982;28;20145;-60
2021/10/14 06:19:58;;;;;;;34.42;19.77;;;9.30;99.90;;;;;;5084548;28;20115;-60
2021/10/14 06:22:24;;;;;;;44.42;21.02;;;9.30;99.90;;;;;;5085836;28;20035;-60
2021/10/14 06:24:50;;;;;;;40.97;19.27;;;9.40;99.90;;;;;;5080615;28;20032;-60
2021/10/14 06:27:15;;;;;;;40.65;18.77;;;9.40;99.90;;;;;;5086286;28;20496;-59
2021/10/14 06:29:41;;;;;;;32.53;18.48;;;9.40;99.90;;;;;;5089003;28;20473;-60
2021/10/14 06:32:07;;;;;;;32.90;18.25;;;9.40;99.90;;;;;;5088608;28;20521;-61
2021/10/14 06:34:32;;;;;;;29.67;16.77;;;9.40;99.90;;;;;;5073841;28;20051;-60
2021/10/14 06:36:58;;;;;;;25.92;15.68;;;9.40;99.90;;;;;;5088159;28;20695;-60
2021/10/14 06:39:23;;;;;;;31.77;15.02;;;9.40;99.90;;;;;;5085686;28;20154;-58
2021/10/14 06:41:49;;;;;;;29.30;16.17;;;9.40;99.90;;;;;;5084752;28;20107;-60
2021/10/14 06:44:14;;;;;;;28.13;15.38;;;9.50;99.90;;;;;;5078839;28;20120;-55
2021/10/14 06:46:40;;;;;;;29.20;15.07;;;9.40;99.90;;;;;;5084186;28;20020;-60
2021/10/14 06:49:06;;;;;;;27.25;14.27;;;9.50;99.90;;;;;;5089363;28;20362;-60
2021/10/14 06:51:32;;;;;;;32.58;16.60;;;9.50;99.90;;;;;;5086163;28;20048;-60
2021/10/14 06:53:58;;;;;;;35.95;16.05;;;9.50;99.90;;;;;;5083354;28;20594;-60
2021/10/14 06:56:24;;;;;;;22.88;14.43;;;9.50;99.90;;;;;;5084211;28;20032;-60
2021/10/14 06:58:49;;;;;;;33.15;18.75;;;9.50;99.90;;;;;;5087353;28;20024;-59
2021/10/14 07:01:15;;;;;;;46.08;21.08;;;9.50;99.90;;;;;;5071732;28;20029;-57
2021/10/14 07:03:42;;;;;;;31.55;15.00;;;9.60;99.90;;;;;;5087407;28;20040;-60
2021/10/14 07:06:07;;;;;;;35.47;16.10;;;9.60;99.90;;;;;;5085062;28;20024;-60
2021/10/14 07:08:33;;;;;;;32.92;18.05;;;9.60;99.90;;;;;;5070909;28;20467;-60
2021/10/14 07:10:59;;;;;;;29.35;15.65;;;9.60;99.90;;;;;;5068193;28;20032;-59
2021/10/14 07:13:25;;;;;;;36.22;18.95;;;9.60;99.90;;;;;;5079017;28;20139;-60
2021/10/14 07:15:51;;;;;;;36.33;20.10;;;9.60;99.90;;;;;;5076927;28;20016;-59
2021/10/14 07:18:17;;;;;;;40.75;20.05;;;9.60;99.90;;;;;;5090386;28;20027;-60
2021/10/14 07:20:42;;;;;;;28.35;16.40;;;9.60;99.90;;;;;;5090652;28;20020;-60
2021/10/14 07:23:11;;;;;;;32.38;15.85;;;9.60;99.90;;;;;;5086039;28;20031;-60
2021/10/14 07:25:38;;;;;;;20.45;11.40;;;9.60;99.90;;;;;;5090708;28;20032;-58
2021/10/14 07:28:05;;;;;;;30.05;10.50;;;9.60;99.90;;;;;;5083524;28;20071;-61
2021/10/14 07:30:31;;;;;;;27.55;11.65;;;9.60;99.90;;;;;;5091223;28;20028;-60
2021/10/14 07:32:59;;;;;;;23.10;11.85;;;9.60;99.90;;;;;;5081867;28;20434;-60
2021/10/14 07:35:25;;;;;;;23.40;11.88;;;9.60;99.90;;;;;;5068254;28;20052;-59
2021/10/14 07:37:51;;;;;;;25.17;13.93;;;9.70;99.90;;;;;;5087253;28;20646;-59
2021/10/14 07:40:16;;;;;;;34.58;18.98;;;9.60;99.90;;;;;;5088156;28;20039;-59
2021/10/14 07:42:42;;;;;;;38.35;20.42;;;9.70;99.90;;;;;;5086269;28;20024;-59
2021/10/14 07:45:08;;;;;;;27.92;13.93;;;9.70;99.90;;;;;;5090093;28;20047;-59
2021/10/14 07:47:33;;;;;;;20.35;10.77;;;9.70;99.90;;;;;;5086233;28;20055;-60
2021/10/14 07:49:59;;;;;;;37.80;21.40;;;9.70;99.90;;;;;;5087631;28;20108;-59
2021/10/14 07:52:24;;;;;;;52.22;32.55;;;9.70;99.90;;;;;;5087975;28;20042;-59
2021/10/14 07:54:50;;;;;;;49.13;28.13;;;9.70;99.90;;;;;;5090776;28;20051;-59
2021/10/14 07:57:15;;;;;;;38.38;22.05;;;9.70;99.90;;;;;;5088745;28;20118;-60
2021/10/14 07:59:42;;;;;;;34.33;19.77;;;9.80;99.90;;;;;;5089833;28;20028;-60
2021/10/14 08:02:08;;;;;;;36.70;17.73;;;9.80;99.90;;;;;;5086365;28;20393;-60
2021/10/14 08:04:34;;;;;;;22.77;12.65;;;9.80;99.90;;;;;;5092789;28;20040;-60
2021/10/14 08:06:59;;;;;;;21.83;10.82;;;9.80;99.90;;;;;;5086468;28;20024;-59
2021/10/14 08:09:25;;;;;;;18.33;12.57;;;9.90;99.90;;;;;;5087418;28;20035;-59
2021/10/14 08:11:50;;;;;;;23.88;13.27;;;9.90;99.90;;;;;;5089200;28;20375;-60
2021/10/14 08:14:16;;;;;;;24.58;11.80;;;9.90;99.90;;;;;;5094002;28;20526;-60
2021/10/14 08:16:41;;;;;;;29.35;14.68;;;10.00;99.90;;;;;;5082694;28;20044;-60
2021/10/14 08:19:07;;;;;;;22.35;13.35;;;10.00;99.90;;;;;;5083332;28;20028;-58
2021/10/14 08:21:32;;;;;;;23.90;11.45;;;10.00;99.90;;;;;;5088018;28;20038;-60
2021/10/14 08:23:58;;;;;;;20.05;11.20;;;10.10;99.90;;;;;;5087101;28;20036;-59
2021/10/14 08:26:23;;;;;;;18.35;11.18;;;10.10;99.90;;;;;;5088914;28;20474;-60
2021/10/14 08:28:49;;;;;;;20.77;13.73;;;10.20;99.90;;;;;;5083979;28;20028;-60
2021/10/14 08:31:15;;;;;;;24.33;12.77;;;10.20;99.90;;;;;;5080022;28;20059;-59
2021/10/14 08:33:41;;;;;;;28.20;14.32;;;10.20;99.90;;;;;;5073840;28;20036;-60
2021/10/14 08:36:07;;;;;;;26.80;13.95;;;10.30;99.90;;;;;;5070875;28;20059;-60
2021/10/14 08:38:33;;;;;;;38.05;15.52;;;10.30;99.90;;;;;;5083572;28;20351;-60
2021/10/14 08:40:58;;;;;;;18.95;10.43;;;10.30;99.90;;;;;;5079709;28;20052;-61
2021/10/14 08:43:31;;;;;;;21.40;10.57;;;10.40;99.90;;;;;;5083852;28;20049;-60
2021/10/14 08:45:57;;;;;;;18.88;9.60;;;10.30;99.90;;;;;;5085646;28;20397;-60
2021/10/14 08:48:24;;;;;;;18.02;8.75;;;10.30;99.90;;;;;;5079511;28;20062;-61
2021/10/14 08:50:50;;;;;;;13.90;8.57;;;10.30;99.90;;;;;;5078513;28;20028;-59
2021/10/14 08:53:16;;;;;;;17.65;9.43;;;10.30;99.90;;;;;;5084071;28;20043;-60
2021/10/14 08:55:42;;;;;;;26.35;9.77;;;10.40;99.90;;;;;;5082182;28;20052;-59
2021/10/14 08:58:09;;;;;;;18.73;8.52;;;10.40;99.90;;;;;;5082163;28;20020;-60
2021/10/14 09:00:36;;;;;;;15.55;8.50;;;10.50;99.90;;;;;;5084689;28;20032;-59
2021/10/14 09:03:26;;;;;;;14.80;9.20;;;10.50;99.90;;;;;;5074505;28;20129;-59
2021/10/14 09:05:52;;;;;;;19.00;8.70;;;10.60;99.90;;;;;;5077213;28;20044;-60
2021/10/14 09:08:34;;;;;;;24.20;9.15;;;10.60;99.90;;;;;;5078760;28;20035;-60
2021/10/14 09:11:28;;;;;;;21.90;9.55;;;10.60;99.90;;;;;;5087077;28;20382;-59
2021/10/14 09:13:59;;;;;;;19.00;9.63;;;10.60;99.90;;;;;;5086396;28;20047;-59
2021/10/14 09:16:33;;;;;;;21.17;10.65;;;10.60;99.90;;;;;;5084372;28;20506;-60
2021/10/14 09:19:21;;;;;;;21.85;9.55;;;10.60;99.90;;;;;;5079834;28;20463;-59
2021/10/14 09:21:49;;;;;;;18.15;9.90;;;10.50;99.90;;;;;;5083679;28;20024;-57
2021/10/14 09:24:35;;;;;;;18.40;9.70;;;10.50;99.90;;;;;;5086902;28;20028;-60
2021/10/14 09:27:14;;;;;;;20.30;10.02;;;10.50;99.90;;;;;;5087112;28;20024;-60
2021/10/14 09:29:41;;;;;;;21.50;10.77;;;10.60;99.90;;;;;;5088678;28;20111;-58
2021/10/14 09:32:15;;;;;;;19.73;10.15;;;10.60;99.90;;;;;;5083382;28;20455;-60
2021/10/14 09:34:41;;;;;;;17.42;10.02;;;10.60;99.90;;;;;;5065063;27;20040;-60
2021/10/14 09:37:16;;;;;;;21.67;11.13;;;10.60;99.90;;;;;;5077944;28;20048;-59
2021/10/14 09:40:09;;;;;;;28.58;11.80;;;10.50;99.90;;;;;;5083656;28;20115;-60
2021/10/14 09:43:00;;;;;;;23.98;11.60;;;10.60;99.90;;;;;;5072710;28;20288;-60
2021/10/14 09:45:30;;;;;;;25.80;11.20;;;10.60;99.90;;;;;;5083416;28;20028;-60
2021/10/14 09:48:05;;;;;;;22.40;12.15;;;10.60;99.90;;;;;;5084059;28;20054;-63
2021/10/14 09:50:49;;;;;;;20.20;12.60;;;10.70;99.90;;;;;;5084307;28;20020;-60
2021/10/14 09:53:19;;;;;;;20.83;11.77;;;10.70;99.90;;;;;;5081962;28;20040;-60
2021/10/14 09:55:46;;;;;;;32.17;16.30;;;10.80;99.90;;;;;;5092325;28;20028;-59
2021/10/14 09:58:13;;;;;;;23.38;15.60;;;10.70;99.90;;;;;;5092559;28;20027;-60
2021/10/14 10:00:40;;;;;;;28.23;14.27;;;10.70;99.90;;;;;;5091366;28;20733;-59
2021/10/14 10:03:09;;;;;;;21.88;11.23;;;10.80;99.90;;;;;;5092360;28;20031;-59
2021/10/14 10:05:37;;;;;;;20.65;12.13;;;10.80;99.90;;;;;;5091633;28;20028;-59
2021/10/14 10:08:08;;;;;;;20.27;11.25;;;10.80;99.90;;;;;;5086332;28;20084;-59
2021/10/14 10:10:36;;;;;;;20.73;10.82;;;10.80;99.90;;;;;;5086472;28;20024;-60
2021/10/14 10:13:02;;;;;;;23.63;11.98;;;10.90;99.90;;;;;;5088341;28;20537;-60
2021/10/14 10:15:48;;;;;;;16.80;10.95;;;11.00;99.90;;;;;;5086719;28;20030;-60
2021/10/14 10:18:27;;;;;;;25.55;14.98;;;11.00;99.90;;;;;;5082255;28;20072;-60
2021/10/14 10:21:01;;;;;;;38.15;25.30;;;11.10;99.90;;;;;;5089459;28;20035;-60
2021/10/14 10:23:42;;;;;;;34.92;19.83;;;11.20;99.90;;;;;;5083023;28;20095;-60
2021/10/14 10:26:33;;;;;;;19.55;12.63;;;11.20;99.90;;;;;;5090385;28;20126;-60
2021/10/14 10:29:11;;;;;;;23.05;14.60;;;11.10;99.90;;;;;;5089825;28;20024;-60
2021/10/14 10:31:48;;;;;;;20.10;13.52;;;11.20;99.90;;;;;;5082214;28;20052;-60
2021/10/14 10:34:41;;;;;;;16.83;11.65;;;11.20;99.90;;;;;;5072174;28;20120;-60
2021/10/14 10:37:13;;;;;;;23.98;12.63;;;11.30;99.90;;;;;;5083174;28;20512;-60
2021/10/14 10:40:01;;;;;;;24.33;13.43;;;11.30;99.90;;;;;;5085320;28;20484;-59
2021/10/14 10:42:28;;;;;;;29.42;18.20;;;11.30;99.90;;;;;;5084834;28;20090;-60
2021/10/14 10:44:54;;;;;;;33.25;18.83;;;11.40;99.90;;;;;;5088615;28;20106;-61
2021/10/14 10:47:43;;;;;;;28.88;18.90;;;11.60;99.90;;;;;;5086716;28;20024;-60
2021/10/14 10:50:12;;;;;;;35.40;22.27;;;11.80;99.90;;;;;;5086828;28;20047;-60
2021/10/14 10:52:40;;;;;;;28.13;17.83;;;12.10;99.90;;;;;;5085656;28;20031;-59
2021/10/14 10:55:32;;;;;;;39.45;23.52;;;12.20;99.90;;;;;;5084993;28;20054;-60
2021/10/14 10:57:58;;;;;;;29.65;19.70;;;12.40;99.90;;;;;;5084930;28;20021;-59
2021/10/14 11:00:24;;;;;;;32.80;21.17;;;12.50;99.90;;;;;;5084899;28;20027;-60
2021/10/14 11:03:15;;;;;;;34.20;22.38;;;12.80;99.90;;;;;;5083202;28;20021;-60
2021/10/14 11:06:06;;;;;;;40.33;23.23;;;13.00;99.90;;;;;;5083707;28;20028;-60
2021/10/14 11:08:35;;;;;;;28.95;19.67;;;13.20;99.90;;;;;;5084815;28;20043;-60
2021/10/14 11:11:18;;;;;;;28.33;17.88;;;13.30;99.90;;;;;;5091502;28;20454;-61
2021/10/14 11:13:52;;;;;;;29.23;19.10;;;13.50;99.90;;;;;;5088327;28;20032;-61
2021/10/14 11:16:22;;;;;;;37.13;22.00;;;13.60;99.90;;;;;;5091694;28;20056;-60
2021/10/14 11:18:51;;;;;;;30.98;18.33;;;13.70;99.90;;;;;;5088866;28;20378;-60
2021/10/14 11:21:20;;;;;;;31.83;19.52;;;13.90;99.90;;;;;;5091014;28;20366;-60
2021/10/14 11:23:48;;;;;;;29.55;18.60;;;14.00;99.90;;;;;;5088882;28;20066;-56
2021/10/14 11:26:41;;;;;;;25.08;15.23;;;14.10;99.90;;;;;;5091206;28;20111;-61
2021/10/14 11:32:23;;;;;;;25.65;16.40;;;14.00;99.90;;;;;;5086478;28;20039;-58
2021/10/14 11:34:37;;;;;;;27.33;14.93;;;14.20;99.90;;;;;;5074779;28;20109;-60
2021/10/14 11:37:09;;;;;;;22.83;15.63;;;14.40;99.90;;;;;;5086772;28;20761;-59
2021/10/14 11:39:41;;;;;;;23.73;14.82;;;14.70;99.90;;;;;;5090345;28;20032;-60
2021/10/14 11:42:11;;;;;;;25.80;15.00;;;14.70;99.90;;;;;;5089168;28;20112;-60
2021/10/14 11:44:39;;;;;;;27.13;15.18;;;14.80;99.90;;;;;;5091206;28;20048;-59
2021/10/14 11:47:07;;;;;;;26.58;15.93;;;14.90;99.90;;;;;;5088564;28;20485;-60
2021/10/14 11:49:33;;;;;;;28.10;16.30;;;15.00;99.90;;;;;;5091066;28;20055;-61
2021/10/14 11:52:04;;;;;;;22.83;14.35;;;15.00;99.90;;;;;;5089507;28;20402;-61
2021/10/14 11:54:32;;;;;;;26.75;15.32;;;14.90;99.90;;;;;;5088773;28;20039;-60
2021/10/14 11:56:58;;;;;;;27.20;15.18;;;14.70;99.90;;;;;;5088142;28;20028;-54
2021/10/14 11:59:26;;;;;;;21.77;13.13;;;14.60;99.90;;;;;;5091039;28;20082;-60
2021/10/14 12:02:05;;;;;;;21.77;14.00;;;14.50;99.90;;;;;;5086355;28;20020;-59
2021/10/14 12:04:45;;;;;;;22.80;12.82;;;14.50;99.90;;;;;;5086600;28;20032;-60
2021/10/14 12:07:16;;;;;;;20.63;12.38;;;14.30;99.90;;;;;;5086341;28;20059;-59
2021/10/14 12:09:42;;;;;;;19.00;12.25;;;14.30;99.90;;;;;;5084300;28;20069;-60
2021/10/14 12:12:09;;;;;;;22.45;11.95;;;14.50;99.90;;;;;;5088408;28;20096;-60
2021/10/14 12:14:38;;;;;;;21.45;10.80;;;14.60;99.90;;;;;;5086526;28;20136;-58
2021/10/14 12:17:16;;;;;;;19.10;10.23;;;14.70;99.90;;;;;;5085155;28;20031;-60
2021/10/14 12:19:42;;;;;;;19.75;9.90;;;14.70;99.90;;;;;;5086297;28;20076;-60
2021/10/14 12:22:09;;;;;;;15.77;9.20;;;14.80;99.90;;;;;;5082821;28;20417;-60
2021/10/14 12:24:50;;;;;;;17.77;9.55;;;14.70;99.90;;;;;;5086366;28;20036;-60
2021/10/14 12:27:16;;;;;;;15.85;9.32;;;14.60;99.90;;;;;;5081046;28;20028;-61
2021/10/14 12:29:46;;;;;;;18.05;10.23;;;14.50;99.90;;;;;;5080422;28;20024;-61
2021/10/14 12:32:17;;;;;;;19.42;9.30;;;14.50;99.90;;;;;;5085169;28;20024;-61
2021/10/14 12:34:51;;;;;;;16.35;8.27;;;14.40;99.90;;;;;;5075635;28;20098;-60
2021/10/14 12:37:18;;;;;;;13.82;8.82;;;14.30;99.90;;;;;;5082855;28;20038;-60
2021/10/14 12:39:44;;;;;;;18.90;10.15;;;14.20;99.90;;;;;;5083853;28;20397;-61